Terminal Aerodrome Forecast
Issued by NWS

Home | Current Version | Previous Version | Text Only | Print | Product List | Glossary On
Versions: 1 2 3 4 5 6 7 8 9 10 11 12 13 14 15
254
FTUS45 KPIH 160559 CCA
TAFSUN
TAF COR
KSUN 160559Z 1606/1712 15006KT 6SM -SN BR BKN015 BKN070 OVC130
     FM161600 32010KT P6SM VCSH FEW040 BKN070
     FM162300 32006KT P6SM FEW080
      AMD LTD TO CLD VIS AND WIND TIL 161400=

USA.gov is the U.S. government's official web portal to all federal, state and local government web resources and services.